Time,TemperatureF,DewpointF,PressureIn,WindDirection,WindDirectionDegrees,WindSpeedMPH,WindSpeedGustMPH,Humidity,HourlyPrecipIn,Conditions,Clouds,dailyrainin,SoftwareType,DateUTC
2013-04-10 00:00:00,68.9,59.5,29.96,SSE,165,3.0,3.0,72,0.00,,,0.00,Wunderground v.1.15,2013-04-10 04:00:00,
2013-04-10 00:10:00,68.1,59.1,29.96,SSW,205,2.0,3.0,73,0.00,,,0.00,Wunderground v.1.15,2013-04-10 04:10:00,
2013-04-10 00:20:00,67.5,58.9,29.95,SSW,200,2.0,2.0,74,0.00,,,0.00,Wunderground v.1.15,2013-04-10 04:20:00,
2013-04-10 00:30:00,66.9,58.7,29.95,SW,229,2.0,6.0,75,0.00,,,0.00,Wunderground v.1.15,2013-04-10 04:30:00,
2013-04-10 00:40:00,67.1,59.3,29.95,WSW,257,4.0,5.0,76,0.00,,,0.00,Wunderground v.1.15,2013-04-10 04:40:00,
2013-04-10 00:50:00,67.3,59.5,29.94,SSW,196,3.0,4.0,76,0.00,,,0.00,Wunderground v.1.15,2013-04-10 04:50:00,
2013-04-10 01:00:00,67.4,59.2,29.94,SSW,196,3.0,4.0,75,0.00,,,0.00,Wunderground v.1.15,2013-04-10 05:00:00,
2013-04-10 01:10:00,67.5,59.3,29.94,SSW,194,2.0,2.0,75,0.00,,,0.00,Wunderground v.1.15,2013-04-10 05:10:00,
2013-04-10 01:20:00,67.7,59.5,29.94,WSW,241,3.0,3.0,75,0.00,,,0.00,Wunderground v.1.15,2013-04-10 05:20:00,
2013-04-10 01:40:00,68.1,59.9,29.94,SW,234,3.0,3.0,75,0.00,,,0.00,Wunderground v.1.15,2013-04-10 05:40:00,
2013-04-10 01:50:00,68.0,59.8,29.94,South,182,2.0,2.0,75,0.00,,,0.00,Wunderground v.1.15,2013-04-10 05:50:00,
2013-04-10 02:00:00,68.0,59.8,29.94,SSW,204,2.0,2.0,75,0.00,,,0.00,Wunderground v.1.15,2013-04-10 06:00:00,
2013-04-10 02:10:00,68.1,59.9,29.94,SW,231,2.0,4.0,75,0.00,,,0.00,Wunderground v.1.15,2013-04-10 06:10:00,
2013-04-10 02:20:00,68.1,59.9,29.94,SE,140,3.0,3.0,75,0.00,,,0.00,Wunderground v.1.15,2013-04-10 06:20:00,
2013-04-10 02:30:00,67.9,60.1,29.94,SSW,202,1.0,2.0,76,0.00,,,0.00,Wunderground v.1.15,2013-04-10 06:30:00,
2013-04-10 02:40:00,68.1,60.2,29.93,SW,222,2.0,2.0,76,0.00,,,0.00,Wunderground v.1.15,2013-04-10 06:40:00,
2013-04-10 02:50:00,68.0,60.2,29.93,SSW,200,2.0,4.0,76,0.00,,,0.00,Wunderground v.1.15,2013-04-10 06:50:00,
2013-04-10 03:00:00,67.2,59.4,29.92,South,177,1.0,1.0,76,0.00,,,0.00,Wunderground v.1.15,2013-04-10 07:00:00,
2013-04-10 03:10:00,66.2,59.5,29.92,South,177,0.0,0.0,79,0.00,,,0.00,Wunderground v.1.15,2013-04-10 07:10:00,
2013-04-10 03:20:00,65.4,59.1,29.92,South,177,0.0,0.0,80,0.00,,,0.00,Wunderground v.1.15,2013-04-10 07:20:00,
2013-04-10 03:30:00,65.0,59.0,29.92,South,177,0.0,1.0,81,0.00,,,0.00,Wunderground v.1.15,2013-04-10 07:30:00,
2013-04-10 03:40:00,64.9,59.3,29.91,South,177,0.0,0.0,82,0.00,,,0.00,Wunderground v.1.15,2013-04-10 07:40:00,
2013-04-10 03:50:00,64.8,59.2,29.91,South,177,0.0,0.0,82,0.00,,,0.00,Wunderground v.1.15,2013-04-10 07:50:00,
2013-04-10 04:00:00,64.7,59.1,29.91,South,177,0.0,1.0,82,0.00,,,0.00,Wunderground v.1.15,2013-04-10 08:00:00,
2013-04-10 04:10:00,64.7,59.1,29.91,South,177,0.0,0.0,82,0.00,,,0.00,Wunderground v.1.15,2013-04-10 08:10:00,
2013-04-10 04:20:00,64.7,59.1,29.91,South,177,0.0,0.0,82,0.00,,,0.00,Wunderground v.1.15,2013-04-10 08:20:00,
2013-04-10 04:30:00,64.5,58.9,29.91,South,177,0.0,0.0,82,0.00,,,0.00,Wunderground v.1.15,2013-04-10 08:30:00,
2013-04-10 04:40:00,64.0,58.7,29.91,South,177,0.0,1.0,83,0.00,,,0.00,Wunderground v.1.15,2013-04-10 08:40:00,
2013-04-10 04:50:00,64.0,58.7,29.91,SSE,163,1.0,1.0,83,0.00,,,0.00,Wunderground v.1.15,2013-04-10 08:50:00,
2013-04-10 05:00:00,64.1,58.8,29.91,SSE,163,2.0,2.0,83,0.00,,,0.00,Wunderground v.1.15,2013-04-10 09:00:00,
2013-04-10 05:10:00,63.8,58.5,29.91,SSE,163,0.0,0.0,83,0.00,,,0.00,Wunderground v.1.15,2013-04-10 09:10:00,
2013-04-10 05:20:00,63.7,58.8,29.91,SSE,163,1.0,1.0,84,0.00,,,0.00,Wunderground v.1.15,2013-04-10 09:20:00,
2013-04-10 05:30:00,63.4,58.5,29.91,South,169,1.0,2.0,84,0.00,,,0.00,Wunderground v.1.15,2013-04-10 09:30:00,
2013-04-10 05:40:00,63.5,58.6,29.92,South,171,1.0,5.0,84,0.00,,,0.00,Wunderground v.1.15,2013-04-10 09:40:00,
2013-04-10 05:50:00,63.7,58.8,29.92,South,186,1.0,1.0,84,0.00,,,0.00,Wunderground v.1.15,2013-04-10 09:50:00,
2013-04-10 06:00:00,63.9,58.6,29.92,SSE,158,1.0,3.0,83,0.00,,,0.00,Wunderground v.1.15,2013-04-10 10:00:00,
2013-04-10 06:10:00,64.1,58.8,29.91,SSW,192,1.0,1.0,83,0.00,,,0.00,Wunderground v.1.15,2013-04-10 10:10:00,
2013-04-10 06:20:00,64.3,58.7,29.91,SSW,201,2.0,2.0,82,0.00,,,0.00,Wunderground v.1.15,2013-04-10 10:20:00,
2013-04-10 06:30:00,64.7,58.7,29.91,SSE,166,3.0,3.0,81,0.00,,,0.00,Wunderground v.1.15,2013-04-10 10:30:00,
2013-04-10 06:40:00,64.8,58.8,29.91,South,183,2.0,4.0,81,0.00,,,0.00,Wunderground v.1.15,2013-04-10 10:40:00,
2013-04-10 06:50:00,64.7,58.7,29.91,SW,215,2.0,3.0,81,0.00,,,0.00,Wunderground v.1.15,2013-04-10 10:50:00,
2013-04-10 07:00:00,64.5,58.5,29.90,SSW,195,2.0,2.0,81,0.00,,,0.00,Wunderground v.1.15,2013-04-10 11:00:00,
2013-04-10 07:10:00,64.1,58.1,29.90,South,178,2.0,5.0,81,0.00,,,0.00,Wunderground v.1.15,2013-04-10 11:10:00,
2013-04-10 07:20:00,64.0,58.4,29.91,South,189,3.0,7.0,82,0.00,,,0.00,Wunderground v.1.15,2013-04-10 11:20:00,
2013-04-10 07:30:00,64.3,58.3,29.91,ESE,119,3.0,3.0,81,0.00,,,0.00,Wunderground v.1.15,2013-04-10 11:30:00,
2013-04-10 07:41:00,64.5,58.5,29.91,SSE,148,3.0,3.0,81,0.00,,,0.00,Wunderground v.1.15,2013-04-10 11:41:00,
2013-04-10 07:50:00,64.8,58.8,29.91,SSW,206,3.0,5.0,81,0.00,,,0.00,Wunderground v.1.15,2013-04-10 11:50:00,
2013-04-10 08:00:00,65.1,58.8,29.91,SSW,197,4.0,4.0,80,0.00,,,0.00,Wunderground v.1.15,2013-04-10 12:00:00,
2013-04-10 08:10:00,65.1,58.8,29.91,SSW,192,3.0,7.0,80,0.00,,,0.00,Wunderground v.1.15,2013-04-10 12:10:00,
2013-04-10 08:20:00,65.6,58.9,29.91,SW,228,4.0,7.0,79,0.00,,,0.00,Wunderground v.1.15,2013-04-10 12:20:00,
2013-04-10 08:30:00,66.1,59.4,29.91,South,183,4.0,4.0,79,0.00,,,0.00,Wunderground v.1.15,2013-04-10 12:30:00,
2013-04-10 08:40:00,66.8,59.7,29.91,SW,235,4.0,5.0,78,0.00,,,0.00,Wunderground v.1.15,2013-04-10 12:40:00,
2013-04-10 08:50:00,67.5,60.0,29.91,SSW,211,4.0,4.0,77,0.00,,,0.00,Wunderground v.1.15,2013-04-10 12:50:00,
2013-04-10 09:00:00,68.2,60.3,29.91,SW,227,4.0,4.0,76,0.00,,,0.00,Wunderground v.1.15,2013-04-10 13:00:00,
2013-04-10 09:10:00,68.9,60.6,29.91,SW,226,4.0,6.0,75,0.00,,,0.00,Wunderground v.1.15,2013-04-10 13:10:00,
2013-04-10 09:20:00,69.6,60.9,29.91,SW,232,7.0,9.0,74,0.00,,,0.00,Wunderground v.1.15,2013-04-10 13:20:00,
2013-04-10 09:30:00,70.3,61.6,29.92,SSW,206,6.0,7.0,74,0.00,,,0.00,Wunderground v.1.15,2013-04-10 13:30:00,
2013-04-10 09:40:00,70.9,61.8,29.92,SW,229,7.0,12.0,73,0.00,,,0.00,Wunderground v.1.15,2013-04-10 13:40:00,
2013-04-10 09:50:00,71.2,62.5,29.92,SW,230,7.0,7.0,74,0.00,,,0.00,Wunderground v.1.15,2013-04-10 13:50:00,
2013-04-10 10:00:00,71.2,62.1,29.91,South,176,7.0,7.0,73,0.00,,,0.00,Wunderground v.1.15,2013-04-10 14:00:00,
2013-04-10 10:10:00,71.0,62.3,29.91,South,186,8.0,8.0,74,0.00,,,0.00,Wunderground v.1.15,2013-04-10 14:10:00,
2013-04-10 10:20:00,71.3,62.6,29.91,WSW,245,7.0,12.0,74,0.00,,,0.00,Wunderground v.1.15,2013-04-10 14:20:00,
2013-04-10 10:30:00,71.1,62.4,29.91,West,277,8.0,8.0,74,0.00,,,0.00,Wunderground v.1.15,2013-04-10 14:30:00,
2013-04-10 10:40:00,71.1,62.4,29.92,SW,216,7.0,7.0,74,0.00,,,0.00,Wunderground v.1.15,2013-04-10 14:40:00,
2013-04-10 10:50:00,71.3,63.0,29.91,SW,227,7.0,7.0,75,0.00,,,0.00,Wunderground v.1.15,2013-04-10 14:50:00,
2013-04-10 11:00:00,72.3,63.2,29.92,South,186,7.0,7.0,73,0.00,,,0.00,Wunderground v.1.15,2013-04-10 15:00:00,
2013-04-10 11:10:00,72.2,63.4,29.91,SW,227,8.0,11.0,74,0.00,,,0.00,Wunderground v.1.15,2013-04-10 15:10:00,
2013-04-10 11:21:00,72.4,63.6,29.90,SSW,205,8.0,8.0,74,0.00,,,0.00,Wunderground v.1.15,2013-04-10 15:21:00,
2013-04-10 11:30:00,73.2,64.0,29.91,WSW,240,8.0,8.0,73,0.00,,,0.00,Wunderground v.1.15,2013-04-10 15:30:00,
2013-04-10 11:40:00,73.4,64.6,29.91,SSW,196,8.0,8.0,74,0.00,,,0.00,Wunderground v.1.15,2013-04-10 15:40:00,
2013-04-10 11:50:00,74.1,64.5,29.91,SW,223,8.0,13.0,72,0.00,,,0.00,Wunderground v.1.15,2013-04-10 15:50:00,
2013-04-10 12:00:00,74.2,65.0,29.91,SW,233,8.0,8.0,73,0.00,,,0.00,Wunderground v.1.15,2013-04-10 16:00:00,
2013-04-10 12:10:00,74.9,64.9,29.91,SW,227,7.0,7.0,71,0.00,,,0.00,Wunderground v.1.15,2013-04-10 16:10:00,
2013-04-10 12:20:00,75.4,64.9,29.91,SW,222,7.0,7.0,70,0.00,,,0.00,Wunderground v.1.15,2013-04-10 16:20:00,
2013-04-10 12:30:00,75.3,65.2,29.91,WSW,244,8.0,8.0,71,0.00,,,0.00,Wunderground v.1.15,2013-04-10 16:30:00,
2013-04-10 12:40:00,75.2,64.7,29.91,SSW,211,8.0,8.0,70,0.00,,,0.00,Wunderground v.1.15,2013-04-10 16:40:00,
2013-04-10 12:51:00,76.2,65.7,29.91,SSW,200,6.0,12.0,70,0.00,,,0.00,Wunderground v.1.15,2013-04-10 16:51:00,
2013-04-10 13:00:00,76.2,64.9,29.91,WSW,243,8.0,8.0,68,0.00,,,0.00,Wunderground v.1.15,2013-04-10 17:00:00,
2013-04-10 13:06:00,76.2,65.3,29.91,SW,215,7.0,8.0,69,0.00,,,0.00,Wunderground v.1.15,2013-04-10 17:06:00,
2013-04-10 13:16:00,77.1,64.9,29.90,South,190,6.0,7.0,66,0.00,,,0.00,Wunderground v.1.15,2013-04-10 17:16:00,
2013-04-10 13:30:00,77.9,65.6,29.89,WSW,244,6.0,10.0,66,0.00,,,0.00,Wunderground v.1.15,2013-04-10 17:30:00,
2013-04-10 13:36:00,78.3,65.6,29.89,SW,230,7.0,14.0,65,0.00,,,0.00,Wunderground v.1.15,2013-04-10 17:36:00,
2013-04-10 13:50:00,78.5,64.4,29.89,WSW,248,9.0,11.0,62,0.00,,,0.00,Wunderground v.1.15,2013-04-10 17:50:00,
2013-04-10 14:00:00,78.9,64.8,29.88,WSW,246,7.0,8.0,62,0.00,,,0.00,Wunderground v.1.15,2013-04-10 18:00:00,
2013-04-10 14:10:00,79.2,65.1,29.87,SW,221,9.0,9.0,62,0.00,,,0.00,Wunderground v.1.15,2013-04-10 18:10:00,
2013-04-10 14:20:00,79.9,65.7,29.86,West,259,8.0,8.0,62,0.00,,,0.00,Wunderground v.1.15,2013-04-10 18:20:00,
2013-04-10 14:30:00,79.6,65.0,29.86,SSW,200,9.0,12.0,61,0.00,,,0.00,Wunderground v.1.15,2013-04-10 18:30:00,
2013-04-10 14:40:00,78.8,64.7,29.86,SSE,161,9.0,9.0,62,0.00,,,0.00,Wunderground v.1.15,2013-04-10 18:40:00,
2013-04-10 14:50:00,78.8,63.7,29.86,WSW,244,9.0,11.0,60,0.00,,,0.00,Wunderground v.1.15,2013-04-10 18:50:00,
2013-04-10 15:00:00,79.0,63.4,29.84,South,184,8.0,9.0,59,0.00,,,0.00,Wunderground v.1.15,2013-04-10 19:00:00,
2013-04-10 15:10:00,79.6,63.0,29.84,WSW,254,8.0,9.0,57,0.00,,,0.00,Wunderground v.1.15,2013-04-10 19:10:00,
2013-04-10 15:20:00,79.8,63.7,29.84,South,175,9.0,12.0,58,0.00,,,0.00,Wunderground v.1.15,2013-04-10 19:20:00,
2013-04-10 15:30:00,80.7,64.1,29.83,South,183,7.0,17.0,57,0.00,,,0.00,Wunderground v.1.15,2013-04-10 19:30:00,
2013-04-10 15:40:00,80.0,62.9,29.83,SW,234,8.0,15.0,56,0.00,,,0.00,Wunderground v.1.15,2013-04-10 19:40:00,
2013-04-10 15:50:00,79.8,63.2,29.83,SSE,161,8.0,8.0,57,0.00,,,0.00,Wunderground v.1.15,2013-04-10 19:50:00,
2013-04-10 16:01:00,79.7,63.1,29.83,SSW,194,7.0,7.0,57,0.00,,,0.00,Wunderground v.1.15,2013-04-10 20:01:00,
2013-04-10 16:10:00,80.8,63.1,29.82,WSW,249,7.0,7.0,55,0.00,,,0.00,Wunderground v.1.15,2013-04-10 20:10:00,
2013-04-10 16:20:00,80.6,62.4,29.82,SW,217,7.0,7.0,54,0.00,,,0.00,Wunderground v.1.15,2013-04-10 20:20:00,
2013-04-10 16:30:00,80.6,64.0,29.82,SW,216,7.0,7.0,57,0.00,,,0.00,Wunderground v.1.15,2013-04-10 20:30:00,
2013-04-10 16:40:00,81.3,63.1,29.82,WSW,252,5.0,12.0,54,0.00,,,0.00,Wunderground v.1.15,2013-04-10 20:40:00,
2013-04-10 16:51:00,81.1,62.3,29.81,SW,227,8.0,9.0,53,0.00,,,0.00,Wunderground v.1.15,2013-04-10 20:51:00,
2013-04-10 17:00:00,81.1,62.3,29.80,West,280,7.0,7.0,53,0.00,,,0.00,Wunderground v.1.15,2013-04-10 21:00:00,
2013-04-10 17:06:00,81.1,62.9,29.80,West,268,8.0,15.0,54,0.00,,,0.00,Wunderground v.1.15,2013-04-10 21:06:00,
2013-04-10 17:20:00,80.8,61.5,29.79,West,267,8.0,14.0,52,0.00,,,0.00,Wunderground v.1.15,2013-04-10 21:20:00,
2013-04-10 17:30:00,80.6,61.9,29.79,South,184,7.0,9.0,53,0.00,,,0.00,Wunderground v.1.15,2013-04-10 21:30:00,
2013-04-10 17:40:00,80.6,61.9,29.79,SSW,205,6.0,6.0,53,0.00,,,0.00,Wunderground v.1.15,2013-04-10 21:40:00,
2013-04-10 17:46:00,80.3,61.6,29.79,West,270,8.0,16.0,53,0.00,,,0.00,Wunderground v.1.15,2013-04-10 21:46:00,
2013-04-10 18:00:00,79.9,61.2,29.78,South,187,7.0,7.0,53,0.00,,,0.00,Wunderground v.1.15,2013-04-10 22:00:00,
2013-04-10 18:10:00,79.9,61.2,29.79,SSW,213,4.0,5.0,53,0.00,,,0.00,Wunderground v.1.15,2013-04-10 22:10:00,
2013-04-10 18:20:00,79.7,62.1,29.78,South,188,6.0,6.0,55,0.00,,,0.00,Wunderground v.1.15,2013-04-10 22:20:00,
2013-04-10 18:30:00,79.4,61.3,29.78,WSW,244,7.0,7.0,54,0.00,,,0.00,Wunderground v.1.15,2013-04-10 22:30:00,
2013-04-10 18:40:00,79.4,61.3,29.78,WSW,238,6.0,6.0,54,0.00,,,0.00,Wunderground v.1.15,2013-04-10 22:40:00,
2013-04-10 18:50:00,79.4,61.8,29.79,SW,236,4.0,6.0,55,0.00,,,0.00,Wunderground v.1.15,2013-04-10 22:50:00,
2013-04-10 19:00:00,79.2,61.6,29.79,South,189,6.0,6.0,55,0.00,,,0.00,Wunderground v.1.15,2013-04-10 23:00:00,
2013-04-10 19:10:00,78.8,61.3,29.79,SW,234,4.0,4.0,55,0.00,,,0.00,Wunderground v.1.15,2013-04-10 23:10:00,
2013-04-10 19:20:00,78.6,61.1,29.78,SSW,202,5.0,5.0,55,0.00,,,0.00,Wunderground v.1.15,2013-04-10 23:20:00,
2013-04-10 19:30:00,78.2,61.2,29.78,South,177,4.0,6.0,56,0.00,,,0.00,Wunderground v.1.15,2013-04-10 23:30:00,
2013-04-10 19:40:00,77.9,61.9,29.78,South,184,4.0,5.0,58,0.00,,,0.00,Wunderground v.1.15,2013-04-10 23:40:00,
2013-04-10 19:50:00,77.5,61.6,29.78,SSW,211,3.0,5.0,58,0.00,,,0.00,Wunderground v.1.15,2013-04-10 23:50:00,
2013-04-10 20:01:00,77.1,62.1,29.77,South,186,3.0,3.0,60,0.00,,,0.00,Wunderground v.1.15,2013-04-11 00:01:00,
2013-04-10 20:10:00,76.4,62.0,29.78,SSE,168,1.0,1.0,61,0.00,,,0.00,Wunderground v.1.15,2013-04-11 00:10:00,
2013-04-10 20:20:00,75.6,61.7,29.78,South,174,1.0,1.0,62,0.00,,,0.00,Wunderground v.1.15,2013-04-11 00:20:00,
2013-04-10 20:30:00,75.2,61.7,29.78,SSW,204,1.0,1.0,63,0.00,,,0.00,Wunderground v.1.15,2013-04-11 00:30:00,
2013-04-10 20:41:00,74.6,61.6,29.77,SSE,164,1.0,1.0,64,0.00,,,0.00,Wunderground v.1.15,2013-04-11 00:41:00,
2013-04-10 20:50:00,74.1,61.1,29.77,South,180,1.0,2.0,64,0.00,,,0.00,Wunderground v.1.15,2013-04-11 00:50:00,
2013-04-10 21:00:00,73.2,61.2,29.77,South,180,1.0,3.0,66,0.00,,,0.00,Wunderground v.1.15,2013-04-11 01:00:00,
2013-04-10 21:10:00,72.6,61.0,29.77,South,180,1.0,1.0,67,0.00,,,0.00,Wunderground v.1.15,2013-04-11 01:10:00,
2013-04-10 21:21:00,72.0,61.3,29.77,South,180,0.0,0.0,69,0.00,,,0.00,Wunderground v.1.15,2013-04-11 01:21:00,
2013-04-10 21:30:00,71.3,61.0,29.77,South,190,0.0,0.0,70,0.00,,,0.00,Wunderground v.1.15,2013-04-11 01:30:00,
2013-04-10 21:41:00,71.3,60.6,29.77,South,184,0.0,0.0,69,0.00,,,0.00,Wunderground v.1.15,2013-04-11 01:41:00,
2013-04-10 21:50:00,71.9,60.8,29.78,South,184,1.0,1.0,68,0.00,,,0.00,Wunderground v.1.15,2013-04-11 01:50:00,
2013-04-10 22:00:00,72.9,60.9,29.78,South,184,0.0,0.0,66,0.00,,,0.00,Wunderground v.1.15,2013-04-11 02:00:00,
2013-04-10 22:10:00,72.6,61.4,29.78,South,184,0.0,0.0,68,0.00,,,0.00,Wunderground v.1.15,2013-04-11 02:10:00,
2013-04-10 22:21:00,71.9,60.8,29.77,South,184,2.0,3.0,68,0.00,,,0.00,Wunderground v.1.15,2013-04-11 02:21:00,
2013-04-10 22:30:00,70.6,60.7,29.77,South,184,2.0,2.0,71,0.00,,,0.00,Wunderground v.1.15,2013-04-11 02:30:00,
2013-04-10 22:40:00,68.8,60.2,29.77,South,184,2.0,2.0,74,0.00,,,0.00,Wunderground v.1.15,2013-04-11 02:40:00,
2013-04-10 22:50:00,68.7,60.1,29.77,South,184,1.0,1.0,74,0.00,,,0.00,Wunderground v.1.15,2013-04-11 02:50:00,
2013-04-10 23:00:00,68.2,60.3,29.78,NNW,336,3.0,5.0,76,0.00,,,0.00,Wunderground v.1.15,2013-04-11 03:00:00,
2013-04-10 23:10:00,65.9,58.8,29.80,NNE,17,6.0,6.0,78,0.00,,,0.00,Wunderground v.1.15,2013-04-11 03:10:00,
2013-04-10 23:20:00,64.6,58.6,29.80,NNE,28,4.0,7.0,81,0.00,,,0.00,Wunderground v.1.15,2013-04-11 03:20:00,
2013-04-10 23:31:00,63.9,58.3,29.80,NNE,15,4.0,4.0,82,0.00,,,0.00,Wunderground v.1.15,2013-04-11 03:31:00,
2013-04-10 23:40:00,63.5,58.2,29.79,North,9,3.0,3.0,83,0.00,,,0.00,Wunderground v.1.15,2013-04-11 03:40:00,
2013-04-10 23:51:00,63.1,57.9,29.78,NE,44,3.0,3.0,83,0.00,,,0.00,Wunderground v.1.15,2013-04-11 03:51:00,